Startline

Run Canada Day

Vancouver, BC - 1 juillet 2018

ÉpreuveRangTemps officiel DossardNomDivision Rang/sexeRang/division Puce
10K 1/146 0:37:53 364 JUNO, Derek M2029 1/62 1/7 0:37:52
10K 2/146 0:38:25 333 ENKE, Sebastian M2029 2/62 2/7 0:38:24
10K 3/146 0:39:19 374 MCCUTCHEON, Murray M4049 3/62 1/16 0:39:18
10K 4/146 0:40:21 316 CHAU, Humphrey M3039 4/62 1/18 0:40:21
10K 5/146 0:41:38 371 LEDWON, Slawomir M3039 5/62 2/18 0:41:37
10K 6/146 0:44:37 426 WILKINSON, Kerry M3039 6/62 3/18 0:44:36
10K 7/146 0:45:01 451 MALCZYNSKI, Kris M6069 7/62 1/7 0:45:01
10K 8/146 0:46:18 391 ROACH, Matthew M3039 8/62 4/18 0:46:17
10K 9/146 0:47:03 460 BORYS, Matt M2029 9/62 3/7 0:46:53
10K 10/146 0:47:07 335 EVANGELISTA, Trevor M3039 10/62 5/18 0:46:56
10K 11/146 0:47:25 457 TASAKA, Tania F4049 1/84 1/12 0:47:24
10K 12/146 0:47:48 361 IONICA, Peter M5059 11/62 1/8 0:47:47
10K 13/146 0:48:33 363 JIMENEZ M., Juancarlos M4049 12/62 2/16 0:48:26
10K 14/146 0:48:59 444 LOEWEN, Reuben M4049 13/62 3/16 0:48:52
10K 15/146 0:49:00 448 LARSEN, Jacob M4049 14/62 4/16 0:48:57
10K 16/146 0:49:59 327 DINER, Jesse M3039 15/62 6/18 0:49:56
10K 17/146 0:50:11 309 BORTOLUSSI, Paolo M4049 16/62 5/16 0:50:07
10K 18/146 0:50:21 430 GEORGE, Alan M3039 17/62 7/18 0:50:05
10K 19/146 0:50:32 452 HENAO, Francisco M2029 18/62 4/7 0:50:21
10K 20/146 0:50:40 446 MACPHERSON, Ailene F2029 2/84 1/16 0:50:29
10K 21/146 0:50:54 439 GURNSEY, Michele F3039 3/84 1/31 0:50:51
10K 22/146 0:51:24 440 JACKSON, Arnold M4049 19/62 6/16 0:51:20
10K 23/146 0:51:46 348 HARRIS, Sean M4049 20/62 7/16 0:51:42
10K 24/146 0:52:03 432 HOESING, Shannon F3039 4/84 2/31 0:52:00
10K 25/146 0:52:33 458 MERKE, Allison F-U20 5/84 1/6 0:52:32
10K 26/146 0:53:31 419 TELFER, Matt M3039 21/62 8/18 0:53:23
10K 27/146 0:53:32 330 ECHEVARRIA, Tamara F2029 6/84 2/16 0:53:30
10K 28/146 0:53:36 412 STOPARCZYK, Michael M4049 22/62 8/16 0:53:35
10K 29/146 0:53:49 384 PEIXER, Janaina F3039 7/84 3/31 0:53:46
10K 30/146 0:53:55 381 O'GRADY, Kathryn F6069 8/84 1/6 0:53:50
10K 31/146 0:54:00 395 SALDANA RIVAS, Andrea F2029 9/84 3/16 0:58:48
10K 32/146 0:54:04 373 MANN, Vicki F5059 10/84 1/12 0:53:56
10K 33/146 0:54:11 459 LOYE, Jennifer F3039 11/84 4/31 0:54:04
10K 34/146 0:54:12 319 COLLEY, Dee F3039 12/84 5/31 0:54:05
10K 35/146 0:54:12 382 O'GRADY, Tia F3039 13/84 6/31 0:54:06
10K 36/146 0:54:20 441 ARMSTRONG, Bob M6069 23/62 2/7 0:54:17
10K 37/146 0:54:20 329 DUK, Robert-Jan M3039 24/62 9/18 0:54:14
10K 38/146 0:55:07 418 TAUDIN-CHABOT, Jordan M2029 25/62 5/7 0:55:06
10K 39/146 0:55:13 447 MUNOZ, Jenny F3039 14/84 7/31 0:55:03
10K 40/146 0:55:20 387 PYRYAEV, Konstantin M4049 26/62 9/16 0:55:19
10K 41/146 0:55:30 450 STEGLICH, Nicole F3039 15/84 8/31 0:55:23
10K 42/146 0:55:39 461 BROWN, Martin M6069 27/62 3/7 0:55:38
10K 43/146 0:55:42 360 IONICA, Cristina F5059 16/84 2/12 0:55:41
10K 44/146 0:55:44 423 WAKELY, Brittany F-U20 17/84 2/6 0:55:44
10K 45/146 0:55:44 337 FLOOD, Jenissa F-U20 18/84 3/6 0:55:44
10K 46/146 0:55:47 456 MURRAY, Deborah F3039 19/84 9/31 0:55:42
10K 47/146 0:55:47 388 REID, Hailey F2029 20/84 4/16 0:55:42
10K 48/146 0:56:18 437 CHIMA, Iain M3039 28/62 10/18 0:56:16
10K 49/146 0:56:24 445 SOTO, Marybel F3039 21/84 10/31 0:56:13
10K 50/146 0:56:51 344 GRONDAHL, Kelli F3039 22/84 11/31 0:56:45
10K 51/146 0:57:19 320 CONNOR, Erin F2029 23/84 5/16 0:57:11
10K 52/146 0:57:19 321 CONNOR, Mollie F2029 24/84 6/16 0:57:10
10K 53/146 0:57:28 413 STORGAARD, Christal F4049 25/84 2/12 0:57:27
10K 54/146 0:57:40 435 FREITAS, Flavio M3039 29/62 11/18 0:57:38
10K 55/146 0:57:41 404 SHIBATA, Steve M4049 30/62 10/16 0:57:36
10K 56/146 0:58:21 405 SINGH, Gurlal M2029 31/62 6/7 0:58:09
10K 57/146 0:58:28 396 SALDANA RIVAS, Cecilia F2029 26/84 7/16 1:03:17
10K 58/146 0:58:35 415 STROH, Matthew M3039 32/62 12/18 0:58:24
10K 59/146 0:58:47 338 FRANKE, Jeff M4049 33/62 11/16 0:58:45
10K 60/146 0:58:55 436 KHATKAR, Raj F4049 27/84 3/12 0:58:47
10K 61/146 0:59:37 431 TEIXEIRA, Frederico M4049 34/62 12/16 1:04:34
10K 62/146 0:59:38 406 SMALL, Kim F3039 28/84 12/31 0:59:35
10K 63/146 0:59:44 369 LAURENT, Marc-Andre M3039 35/62 13/18 0:59:41
10K 64/146 0:59:48 407 SMITH, Devon F-U20 29/84 4/6 0:59:41
10K 65/146 0:59:48 408 SMITH, Ian M5059 36/62 2/8 0:59:41
10K 66/146 0:59:49 375 MCELVAINE, Erin F2029 30/84 8/16 0:59:43
10K 67/146 0:59:54 302 ASHTON, Erica F3039 31/84 13/31 0:59:50
10K 68/146 1:00:15 317 CHONG, Joseph M4049 37/62 13/16 1:00:00
10K 69/146 1:00:22 342 GREGORY, Ian M5059 38/62 3/8 1:00:18
10K 70/146 1:00:24 343 GREGORY, Michelle F5059 32/84 3/12 1:00:19
10K 71/146 1:00:49 367 KNAPPETT, Martina F2029 33/84 9/16 1:00:47
10K 72/146 1:01:09 334 ESTACIO, Vina F4049 34/84 4/12 1:01:05
10K 73/146 1:01:46 345 HAGUSA, Kazuo M4049 39/62 14/16 1:01:41
10K 74/146 1:02:03 393 ROZITIS, Christopher M5059 40/62 4/8 1:01:53
10K 75/146 1:02:14 414 STORGAARD, Liam M-U20 41/62 1/4 1:02:12
10K 76/146 1:02:16 347 HARRIS, Elizabeth F4049 35/84 5/12 1:02:10
10K 77/146 1:02:25 372 MADANI, Mohammad M70+ 42/62 1/2 1:02:24
10K 78/146 1:02:56 365 KARACA, Amanda F3039 36/84 14/31 1:02:44
10K 79/146 1:02:57 420 TIEN, Mareen F3039 37/84 15/31 1:02:52
10K 80/146 1:02:58 366 KARACA, Ellis M-U20 43/62 2/4 1:02:45
10K 81/146 1:02:58 386 PICKRELL, Laura F4049 38/84 6/12 1:02:47
10K 82/146 1:03:04 455 HUISIN'T VELD, Laura F3039 39/84 16/31 1:02:56
10K 83/146 1:03:57 328 DRUMMER, Nicole F3039 40/84 17/31 1:03:47
10K 84/146 1:04:11 442 YANG, David M-U20 44/62 3/4 1:04:11
10K 85/146 1:04:30 438 DHALIWAL, Herb M6069 45/62 4/7 1:04:27
10K 86/146 1:04:39 425 WILBUR, Kerry F4049 41/84 7/12 1:04:23
10K 87/146 1:04:47 311 BREEN, Aisling F3039 42/84 18/31 1:04:44
10K 88/146 1:04:58 339 FRASER, Adam M3039 46/62 14/18 1:04:52
10K 89/146 1:04:58 385 PENGE, Justin M3039 47/62 15/18 1:04:52
10K 90/146 1:05:03 340 FRENCH, Katherine F3039 43/84 19/31 1:04:58
10K 91/146 1:05:17 353 HRISCHUK, Terry M5059 48/62 5/8 1:05:08
10K 92/146 1:05:27 310 BOSSHART, Harald M5059 49/62 6/8 1:05:18
10K 93/146 1:05:37 392 ROTH, Rebecca F2029 44/84 10/16 1:05:26
10K 94/146 1:05:46 453 LALJI, Sakina F2029 45/84 11/16 1:05:41
10K 95/146 1:06:02 409 SOLIS, Celina F3039 46/84 20/31 1:05:42
10K 96/146 1:06:02 421 URIBE, David M3039 50/62 16/18 1:05:42
10K 97/146 1:06:56 378 MEJIA, Andrea F4049 47/84 8/12 1:06:46
10K 98/146 1:07:00 306 BANKS, Emily F3039 48/84 21/31 1:06:52
10K 99/146 1:07:00 301 ACORN, Candace F3039 49/84 22/31 1:06:52
10K 100/146 1:07:03 403 SEMCHUK, Len M6069 51/62 5/7 1:06:53
10K 101/146 1:07:04 443 GRANGER, Debbie F5059 50/84 4/12 1:06:53
10K 102/146 1:07:14 449 MESSINA, Leanne F4049 51/84 9/12 1:07:06
10K 103/146 1:07:18 380 NAKAMURA, Hikaru M3039 52/62 17/18 1:07:12
10K 104/146 1:07:40 324 DEITCH, Anne F6069 52/84 2/6 1:07:34
10K 105/146 1:07:40 368 KURENOFF, Gord M5059 53/62 7/8 1:07:31
10K 106/146 1:07:56 434 FONG, Mabel F5059 53/84 5/12 1:07:46
10K 107/146 1:08:16 355 HUANG, Grace F2029 54/84 12/16 1:08:16
10K 108/146 1:08:18 354 HUANG, Emily Yf F2029 55/84 13/16 1:08:17
10K 109/146 1:08:50 332 ENKE, Alexandra F2029 56/84 14/16 1:08:33
10K 110/146 1:09:29 398 SANDOR, Paul M5059 54/62 8/8 1:09:20
10K 111/146 1:09:55 350 HESS, Timo M3039 55/62 18/18 1:09:42
10K 112/146 1:09:55 349 HESS, Lola F-U20 57/84 5/6 1:09:42
10K 113/146 1:10:08 362 ITOO, Renata F3039 58/84 23/31 1:10:05
10K 114/146 1:10:34 410 STEWART, Ian M-U20 56/62 4/4 1:10:22
10K 115/146 1:10:37 411 STEWART, Niel M4049 57/62 15/16 1:10:24
10K 116/146 1:10:58 390 REYNOLDS, Rick M6069 58/62 6/7 1:10:47
10K 117/146 1:11:47 376 MCNELIS, Lisa F6069 59/84 3/6 1:11:36
10K 118/146 1:12:05 416 SWANSTON, Jennifer F3039 60/84 24/31 1:11:57
10K 119/146 1:12:09 305 BALLANTYNE, Erin F3039 61/84 25/31 1:12:01
10K 120/146 1:12:09 370 LAWSON, Catherine F5059 62/84 6/12 1:12:01
10K 121/146 1:12:47 422 VIPOND, Holly F4049 63/84 10/12 1:12:33
10K 122/146 1:13:15 326 DEWAR, Kathryn F3039 64/84 26/31 1:13:04
10K 123/146 1:13:16 325 DEWAR, Janet F6069 65/84 4/6 1:13:05
10K 124/146 1:13:29 303 ATIENZA, Joanna F3039 66/84 27/31 1:13:26
10K 125/146 1:13:40 322 COOK, Audrey F6069 67/84 5/6 1:13:34
10K 126/146 1:13:40 401 SEADON, Julia F3039 68/84 28/31 1:13:28
10K 127/146 1:17:28 346 HARDY, Eileen F5059 69/84 7/12 1:17:17
10K 128/146 1:17:39 314 CALINOG, Romalyn F3039 70/84 29/31 1:17:38
10K 129/146 1:18:17 462 FRECH, Martin M4049 59/62 16/16 1:18:03
10K 130/146 1:19:57 417 SWINFORD, David M70+ 60/62 2/2 1:19:45
10K 131/146 1:20:24 312 BROZINSKY, Alisa F5059 71/84 8/12 1:20:13
10K 132/146 1:21:22 397 SANDOR, Martha F5059 72/84 9/12 1:21:15
10K 133/146 1:21:22 389 REID, Jock M6069 61/62 7/7 1:21:14
10K 134/146 1:21:52 424 WEERAMANTRY, Carolyn F5059 73/84 10/12 1:21:44
10K 135/146 1:21:52 377 MCNELIS, Megan F4049 74/84 11/12 1:21:43
10K 136/146 1:25:56 341 GAERLAN, Jeamylin F3039 75/84 30/31 1:25:51
10K 137/146 1:31:07 313 BROZINSKY, Sophie F-U20 76/84 6/6 1:30:56
10K 138/146 1:31:17 428 WOOD, Jacqueline F5059 77/84 11/12 1:31:08
10K 139/146 1:31:18 454 SPRACKLIN, Kathryn F5059 78/84 12/12 1:31:07
10K 140/146 1:32:27 356 HUANG, Lisa F3039 79/84 31/31 1:32:23
10K 141/146 1:32:28 351 HOANG, Richard M2029 62/62 7/7 1:32:23
10K 142/146 1:32:46 433 COFFEY, Cathy F6069 80/84 6/6 1:32:31
10K 143/146 1:34:51 323 DAVIES, Sandra F70+ 81/84 1/1 1:34:37
10K 144/146 1:36:55 359 IGHARAS, Jell Louise F2029 82/84 15/16 1:36:54
10K 145/146 1:48:05 331 ELIGOYO, Analyn F2029 83/84 16/16 1:48:03
10K 146/146 1:54:12 304 AWUY, Grace F4049 84/84 12/12 1:53:56